createdAt,value
2018-02-17T00:00:05.642Z,80.50
2018-02-17T00:01:11.053Z,80.60
2018-02-17T00:02:05.983Z,80.60
2018-02-17T00:03:10.529Z,80.50
2018-02-17T00:04:06.055Z,80.50
2018-02-17T00:05:08.872Z,80.60
2018-02-17T00:06:05.932Z,80.50
2018-02-17T00:07:06.134Z,80.50
2018-02-17T00:08:09.341Z,80.50
2018-02-17T00:09:05.934Z,80.50
2018-02-17T00:10:08.932Z,80.50
2018-02-17T00:11:06.630Z,80.50
2018-02-17T00:12:09.236Z,80.50
2018-02-17T00:13:06.043Z,80.50
2018-02-17T00:14:13.274Z,80.50
2018-02-17T00:15:08.959Z,80.50
2018-02-17T00:16:06.451Z,80.50
2018-02-17T00:17:05.675Z,80.50
2018-02-17T00:18:06.315Z,80.60
2018-02-17T00:19:09.156Z,80.80
2018-02-17T00:20:10.779Z,80.80
2018-02-17T00:21:06.415Z,80.70
2018-02-17T00:22:06.501Z,80.90
2018-02-17T00:23:06.225Z,80.80
2018-02-17T00:24:10.534Z,80.80
2018-02-17T00:25:06.189Z,80.90
2018-02-17T00:26:05.931Z,80.90
2018-02-17T00:27:10.704Z,81.20
2018-02-17T00:28:08.988Z,81.20
2018-02-17T00:29:05.600Z,81.20
2018-02-17T00:30:06.257Z,81.20
2018-02-17T00:31:10.794Z,81.20
2018-02-17T00:32:05.962Z,81.20
2018-02-17T00:33:07.177Z,81.20
2018-02-17T00:34:06.352Z,81.20
2018-02-17T00:35:08.647Z,81.30
2018-02-17T00:36:08.933Z,81.30
2018-02-17T00:37:11.411Z,81.20
2018-02-17T00:38:11.053Z,81.20
2018-02-17T00:39:06.564Z,81.30
2018-02-17T00:40:13.446Z,81.30
2018-02-17T00:41:13.312Z,81.40
2018-02-17T00:42:13.405Z,81.70
2018-02-17T00:43:05.867Z,81.70
2018-02-17T00:44:06.418Z,82.00
2018-02-17T00:45:08.971Z,82.40
2018-02-17T00:46:11.434Z,82.30
2018-02-17T00:47:09.957Z,82.20
2018-02-17T00:48:09.743Z,82.20
2018-02-17T00:49:06.564Z,82.20
2018-02-17T00:50:11.156Z,82.20
2018-02-17T00:51:08.060Z,82.10
2018-02-17T00:52:10.621Z,82.10
2018-02-17T00:53:11.206Z,82.10
2018-02-17T00:54:06.192Z,82.00
2018-02-17T00:55:06.165Z,82.00
2018-02-17T00:56:05.858Z,81.90
2018-02-17T00:57:07.980Z,81.90
2018-02-17T00:58:11.361Z,81.90
2018-02-17T00:59:05.966Z,81.90
2018-02-17T01:00:06.230Z,81.90
2018-02-17T01:01:09.254Z,81.90
2018-02-17T01:02:10.843Z,81.80
2018-02-17T01:03:08.297Z,81.90
2018-02-17T01:04:09.008Z,81.90
2018-02-17T01:05:10.702Z,81.90
2018-02-17T01:06:11.146Z,82.20
2018-02-17T01:07:10.706Z,82.30
2018-02-17T01:08:09.392Z,82.30
2018-02-17T01:09:06.051Z,82.40
2018-02-17T01:10:08.226Z,82.20
2018-02-17T01:11:13.202Z,82.20
2018-02-17T01:12:05.751Z,82.20
2018-02-17T01:13:05.897Z,82.20
2018-02-17T01:14:09.548Z,82.10
2018-02-17T01:15:06.262Z,82.10
2018-02-17T01:16:06.045Z,82.10
2018-02-17T01:17:05.672Z,82.10
2018-02-17T01:18:11.448Z,82.20
2018-02-17T01:19:06.110Z,82.10
2018-02-17T01:20:06.233Z,82.10
2018-02-17T01:21:06.040Z,82.00
2018-02-17T01:22:10.871Z,82.10
2018-02-17T01:23:11.063Z,82.10
2018-02-17T01:24:06.607Z,82.10
2018-02-17T01:25:06.420Z,82.10
2018-02-17T01:26:11.280Z,82.20
2018-02-17T01:27:05.838Z,82.20
2018-02-17T01:28:06.037Z,82.20
2018-02-17T01:29:05.767Z,82.20
2018-02-17T01:30:06.377Z,82.20
2018-02-17T01:31:11.005Z,82.20
2018-02-17T01:32:06.533Z,82.20
2018-02-17T01:33:05.526Z,82.30
2018-02-17T01:34:06.301Z,82.40
2018-02-17T01:35:05.958Z,82.20
2018-02-17T01:36:06.029Z,82.20
2018-02-17T01:37:05.902Z,82.30
2018-02-17T01:38:10.688Z,82.30
2018-02-17T01:39:11.468Z,82.30
2018-02-17T01:40:06.320Z,82.20
2018-02-17T01:41:10.303Z,82.40
2018-02-17T01:42:05.989Z,82.30
2018-02-17T01:43:05.691Z,82.30
2018-02-17T01:44:05.808Z,82.20
2018-02-17T01:45:06.688Z,82.20
2018-02-17T01:46:09.517Z,82.30
2018-02-17T01:47:11.043Z,82.20
2018-02-17T01:48:08.170Z,82.30
2018-02-17T01:49:08.990Z,82.30
2018-02-17T01:50:08.944Z,82.40
2018-02-17T01:51:06.605Z,82.40
2018-02-17T01:52:06.581Z,82.40
2018-02-17T01:53:06.510Z,82.50
2018-02-17T01:54:05.947Z,82.50
2018-02-17T01:55:05.970Z,82.50
2018-02-17T01:56:05.922Z,82.40
2018-02-17T01:57:08.646Z,82.40
2018-02-17T01:58:07.213Z,82.50
2018-02-17T01:59:09.575Z,82.60
2018-02-17T02:00:06.246Z,82.60
2018-02-17T02:01:05.936Z,82.60
2018-02-17T02:02:05.867Z,82.60
2018-02-17T02:03:10.169Z,82.60
2018-02-17T02:04:08.910Z,82.60
2018-02-17T02:05:11.369Z,82.50
2018-02-17T02:06:06.373Z,82.50
2018-02-17T02:07:08.694Z,82.40
2018-02-17T02:08:09.273Z,82.40
2018-02-17T02:09:08.259Z,82.40
2018-02-17T02:10:05.680Z,82.40
2018-02-17T02:11:08.710Z,82.40
2018-02-17T02:12:06.273Z,82.40
2018-02-17T02:13:10.887Z,82.40
2018-02-17T02:14:11.346Z,82.20
2018-02-17T02:15:05.798Z,82.30
2018-02-17T02:16:09.052Z,82.20
2018-02-17T02:17:06.614Z,82.30
2018-02-17T02:18:08.898Z,82.30
2018-02-17T02:19:06.550Z,82.30
2018-02-17T02:20:05.694Z,82.30
2018-02-17T02:21:06.382Z,82.30
2018-02-17T02:22:09.647Z,82.40
2018-02-17T02:23:09.494Z,82.40
2018-02-17T02:24:06.112Z,82.50
2018-02-17T02:25:08.348Z,82.40
2018-02-17T02:26:10.899Z,82.50
2018-02-17T02:27:11.390Z,82.40
2018-02-17T02:28:08.384Z,82.40
2018-02-17T02:29:06.210Z,82.40
2018-02-17T02:30:08.470Z,82.30
2018-02-17T02:31:05.969Z,82.30
2018-02-17T02:32:10.901Z,82.20
2018-02-17T02:33:08.630Z,82.20
2018-02-17T02:34:05.860Z,82.20
2018-02-17T02:35:13.854Z,82.20
2018-02-17T02:36:10.917Z,82.20
2018-02-17T02:37:12.440Z,82.20
2018-02-17T02:38:11.233Z,82.20
2018-02-17T02:39:11.740Z,82.20
2018-02-17T02:40:06.289Z,82.20
2018-02-17T02:41:05.997Z,82.30
2018-02-17T02:42:06.072Z,82.20
2018-02-17T02:43:07.335Z,82.20
2018-02-17T02:44:09.871Z,82.20
2018-02-17T02:45:06.314Z,82.20
2018-02-17T02:46:11.421Z,82.10
2018-02-17T02:47:08.639Z,82.10
2018-02-17T02:48:06.149Z,82.10
2018-02-17T02:49:05.864Z,82.10
2018-02-17T02:50:08.966Z,82.20
2018-02-17T02:51:06.477Z,82.30
2018-02-17T02:52:11.083Z,82.20
2018-02-17T02:53:05.687Z,82.20
2018-02-17T02:54:11.346Z,82.20
2018-02-17T02:55:05.908Z,82.20
2018-02-17T02:56:05.478Z,82.20
2018-02-17T02:57:08.014Z,82.40
2018-02-17T02:58:09.780Z,82.20
2018-02-17T02:59:08.797Z,82.30
2018-02-17T03:00:08.872Z,82.30
2018-02-17T03:01:06.303Z,82.40
2018-02-17T03:02:11.106Z,82.50
2018-02-17T03:03:10.786Z,82.40
2018-02-17T03:04:06.437Z,82.40
2018-02-17T03:05:06.337Z,82.40
2018-02-17T03:06:08.793Z,82.50
2018-02-17T03:07:05.982Z,82.60
2018-02-17T03:08:05.775Z,82.60
2018-02-17T03:09:10.899Z,82.60
2018-02-17T03:10:06.069Z,82.60
2018-02-17T03:11:14.130Z,82.90
2018-02-17T03:12:14.425Z,83.10
2018-02-17T03:13:08.494Z,83.00
2018-02-17T03:14:06.168Z,83.10
2018-02-17T03:15:11.430Z,83.10
2018-02-17T03:16:15.588Z,83.00
2018-02-17T03:17:06.003Z,83.10
2018-02-17T03:18:10.895Z,83.10
2018-02-17T03:19:08.902Z,83.10
2018-02-17T03:20:08.882Z,83.10
2018-02-17T03:21:06.289Z,83.00
2018-02-17T03:22:09.779Z,83.00
2018-02-17T03:23:06.299Z,83.00
2018-02-17T03:24:05.972Z,83.00
2018-02-17T03:25:06.409Z,83.00
2018-02-17T03:26:06.247Z,83.00
2018-02-17T03:27:10.809Z,83.00
2018-02-17T03:28:06.572Z,83.00
2018-02-17T03:29:09.642Z,83.00
2018-02-17T03:30:11.159Z,83.00
2018-02-17T03:31:05.894Z,83.00
2018-02-17T03:32:06.496Z,83.00
2018-02-17T03:33:06.240Z,83.00
2018-02-17T03:34:06.213Z,83.10
2018-02-17T03:35:05.816Z,83.10
2018-02-17T03:36:18.608Z,83.30
2018-02-17T03:37:06.062Z,83.20
2018-02-17T03:38:08.675Z,83.30
2018-02-17T03:39:11.082Z,83.30
2018-02-17T03:40:05.536Z,83.30
2018-02-17T03:41:11.556Z,83.30
2018-02-17T03:42:05.727Z,83.30
2018-02-17T03:43:06.537Z,83.30
2018-02-17T03:44:11.450Z,83.30
2018-02-17T03:45:05.916Z,83.30
2018-02-17T03:46:05.978Z,83.20
2018-02-17T03:47:06.109Z,83.30
2018-02-17T03:48:05.884Z,83.30
2018-02-17T03:49:05.713Z,83.20
2018-02-17T03:50:05.557Z,76.80
2018-02-17T03:51:09.185Z,83.10
2018-02-17T03:52:09.606Z,83.10
2018-02-17T03:53:05.575Z,83.10
2018-02-17T03:54:09.200Z,83.10
2018-02-17T03:55:08.253Z,83.10
2018-02-17T03:56:05.796Z,83.10
2018-02-17T03:57:06.727Z,83.10
2018-02-17T03:58:06.314Z,83.00
2018-02-17T03:59:08.150Z,83.00
2018-02-17T04:00:05.709Z,83.00
2018-02-17T04:01:06.605Z,83.00
2018-02-17T04:02:09.213Z,83.00
2018-02-17T04:03:05.754Z,83.00
2018-02-17T04:04:10.845Z,83.00
2018-02-17T04:05:06.135Z,83.00
2018-02-17T04:06:09.700Z,83.00
2018-02-17T04:07:05.872Z,83.00
2018-02-17T04:08:11.243Z,83.00
2018-02-17T04:09:05.980Z,83.00
2018-02-17T04:10:05.653Z,83.10
2018-02-17T04:11:05.587Z,83.10
2018-02-17T04:12:09.738Z,83.30
2018-02-17T04:13:06.517Z,83.30
2018-02-17T04:14:06.616Z,83.30
2018-02-17T04:15:06.609Z,83.30
2018-02-17T04:16:11.068Z,83.20
2018-02-17T04:17:09.638Z,83.20
2018-02-17T04:18:06.278Z,83.20
2018-02-17T04:19:06.187Z,83.40
2018-02-17T04:20:05.597Z,83.40
2018-02-17T04:21:11.439Z,83.50
2018-02-17T04:22:08.516Z,83.50
2018-02-17T04:23:10.805Z,83.60
2018-02-17T04:24:05.952Z,83.60
2018-02-17T04:25:05.958Z,83.60
2018-02-17T04:26:05.693Z,83.60
2018-02-17T04:27:10.625Z,83.60
2018-02-17T04:28:07.442Z,83.70
2018-02-17T04:29:11.149Z,83.60
2018-02-17T04:30:13.884Z,83.70
2018-02-17T04:31:06.505Z,83.70
2018-02-17T04:32:14.306Z,83.80
2018-02-17T04:33:11.189Z,83.80
2018-02-17T04:34:06.008Z,83.90
2018-02-17T04:35:10.742Z,83.80
2018-02-17T04:36:06.301Z,83.80
2018-02-17T04:37:08.783Z,83.80
2018-02-17T04:38:05.550Z,83.80
2018-02-17T04:39:09.769Z,83.60
2018-02-17T04:40:06.394Z,83.80
2018-02-17T04:41:05.958Z,83.90
2018-02-17T04:42:08.929Z,83.80
2018-02-17T04:43:06.347Z,83.80
2018-02-17T04:44:11.040Z,83.90
2018-02-17T04:45:06.189Z,83.90
2018-02-17T04:46:06.057Z,83.90
2018-02-17T04:47:10.788Z,84.00
2018-02-17T04:48:16.283Z,84.10
2018-02-17T04:49:06.385Z,84.10
2018-02-17T04:50:05.986Z,84.10
2018-02-17T04:51:06.589Z,84.20
2018-02-17T04:52:10.458Z,84.30
2018-02-17T04:53:06.079Z,84.30
2018-02-17T04:54:09.746Z,84.30
2018-02-17T04:55:13.771Z,84.30
2018-02-17T04:56:06.269Z,84.20
2018-02-17T04:57:10.524Z,84.20
2018-02-17T04:58:09.221Z,84.10
2018-02-17T04:59:08.623Z,84.00
2018-02-17T05:00:13.707Z,84.00
2018-02-17T05:01:11.487Z,84.00
2018-02-17T05:02:05.752Z,84.00
2018-02-17T05:03:11.070Z,83.90
2018-02-17T05:04:06.409Z,84.00
2018-02-17T05:05:09.713Z,83.90
2018-02-17T05:06:10.437Z,83.90
2018-02-17T05:07:06.317Z,83.90
2018-02-17T05:08:06.340Z,83.80
2018-02-17T05:09:05.848Z,83.80
2018-02-17T05:10:06.108Z,84.00
2018-02-17T05:11:05.850Z,83.70
2018-02-17T05:12:06.159Z,83.80
2018-02-17T05:13:06.071Z,83.80
2018-02-17T05:14:11.417Z,83.90
2018-02-17T05:15:05.538Z,83.90
2018-02-17T05:16:05.593Z,83.90
2018-02-17T05:17:09.033Z,83.90
2018-02-17T05:18:08.643Z,83.90
2018-02-17T05:19:06.214Z,83.90
2018-02-17T05:20:10.974Z,83.90
2018-02-17T05:21:09.110Z,83.90
2018-02-17T05:22:10.551Z,83.90
2018-02-17T05:23:05.619Z,83.90
2018-02-17T05:24:11.284Z,83.90
2018-02-17T05:25:06.307Z,83.90
2018-02-17T05:26:05.964Z,83.90
2018-02-17T05:27:06.071Z,83.90
2018-02-17T05:28:10.819Z,83.90
2018-02-17T05:29:06.273Z,83.90
2018-02-17T05:30:11.031Z,83.90
2018-02-17T05:31:10.536Z,83.90
2018-02-17T05:32:06.324Z,83.90
2018-02-17T05:33:06.551Z,83.90
2018-02-17T05:34:05.689Z,83.90
2018-02-17T05:35:06.044Z,83.90
2018-02-17T05:36:11.127Z,83.80
2018-02-17T05:37:13.062Z,83.90
2018-02-17T05:38:11.477Z,83.80
2018-02-17T05:39:11.152Z,83.80
2018-02-17T05:40:06.209Z,83.80
2018-02-17T05:41:06.006Z,83.70
2018-02-17T05:42:05.567Z,83.80
2018-02-17T05:43:06.526Z,83.80
2018-02-17T05:44:05.592Z,83.80
2018-02-17T05:45:10.191Z,83.80
2018-02-17T05:46:11.470Z,83.70
2018-02-17T05:47:10.869Z,83.70
2018-02-17T05:48:08.850Z,83.60
2018-02-17T05:49:06.321Z,83.60
2018-02-17T05:50:05.525Z,83.60
2018-02-17T05:51:11.210Z,83.60
2018-02-17T05:52:05.924Z,83.60
2018-02-17T05:53:09.195Z,83.60
2018-02-17T05:54:05.661Z,83.60
2018-02-17T05:55:10.128Z,83.70
2018-02-17T05:56:06.299Z,83.70
2018-02-17T05:57:06.702Z,83.70
2018-02-17T05:58:05.521Z,83.80
2018-02-17T05:59:06.328Z,83.80
2018-02-17T06:00:06.229Z,83.80
2018-02-17T06:01:05.646Z,83.80
2018-02-17T06:02:05.822Z,83.80
2018-02-17T06:03:05.727Z,83.90
2018-02-17T06:04:06.053Z,83.90
2018-02-17T06:05:10.821Z,83.90
2018-02-17T06:06:05.910Z,83.90
2018-02-17T06:07:15.856Z,84.00
2018-02-17T06:08:09.392Z,84.00
2018-02-17T06:09:09.262Z,83.90
2018-02-17T06:10:05.854Z,84.00
2018-02-17T06:11:09.843Z,83.90
2018-02-17T06:12:09.549Z,84.10
2018-02-17T06:13:05.990Z,84.10
2018-02-17T06:14:05.672Z,84.10
2018-02-17T06:15:05.965Z,84.10
2018-02-17T06:16:05.734Z,84.00
2018-02-17T06:17:06.247Z,84.10
2018-02-17T06:18:08.700Z,84.10
2018-02-17T06:19:06.384Z,84.10
2018-02-17T06:20:06.013Z,84.10
2018-02-17T06:21:05.580Z,84.10
2018-02-17T06:22:06.423Z,84.10
2018-02-17T06:23:05.982Z,84.20
2018-02-17T06:24:06.002Z,84.30
2018-02-17T06:25:09.032Z,84.30
2018-02-17T06:26:08.838Z,84.30
2018-02-17T06:27:11.431Z,84.40
2018-02-17T06:28:05.596Z,84.20
2018-02-17T06:29:09.715Z,84.30
2018-02-17T06:30:08.713Z,84.30
2018-02-17T06:31:06.359Z,84.30
2018-02-17T06:32:08.254Z,84.30
2018-02-17T06:33:06.001Z,84.30
2018-02-17T06:34:05.908Z,84.30
2018-02-17T06:35:05.485Z,84.30
2018-02-17T06:36:06.199Z,84.30
2018-02-17T06:37:05.988Z,84.30
2018-02-17T06:38:05.986Z,84.30
2018-02-17T06:39:06.537Z,84.30
2018-02-17T06:40:08.466Z,84.30
2018-02-17T06:41:10.909Z,84.30
2018-02-17T06:42:11.444Z,84.30
2018-02-17T06:43:11.862Z,84.20
2018-02-17T06:44:05.828Z,84.20
2018-02-17T06:45:06.374Z,84.10
2018-02-17T06:46:08.416Z,84.10
2018-02-17T06:47:10.996Z,84.10
2018-02-17T06:48:06.468Z,84.20
2018-02-17T06:49:06.296Z,84.30
2018-02-17T06:50:06.106Z,84.30
2018-02-17T06:51:05.755Z,84.30
2018-02-17T06:52:05.689Z,84.30
2018-02-17T06:53:16.482Z,84.30
2018-02-17T06:54:06.242Z,84.30
2018-02-17T06:55:12.042Z,84.30
2018-02-17T06:56:06.399Z,84.30
2018-02-17T06:57:08.570Z,84.30
2018-02-17T06:58:08.625Z,84.30
2018-02-17T06:59:06.349Z,84.30
2018-02-17T07:00:13.584Z,84.30
2018-02-17T07:01:09.210Z,84.20
2018-02-17T07:02:05.638Z,84.20
2018-02-17T07:03:06.115Z,84.20
2018-02-17T07:04:10.770Z,84.30
2018-02-17T07:05:11.275Z,84.30
2018-02-17T07:06:05.650Z,84.30
2018-02-17T07:07:08.839Z,84.30
2018-02-17T07:08:09.544Z,84.50
2018-02-17T07:09:05.981Z,84.40
2018-02-17T07:10:05.899Z,84.40
2018-02-17T07:11:05.533Z,84.50
2018-02-17T07:12:10.992Z,84.60
2018-02-17T07:13:09.384Z,84.60
2018-02-17T07:14:10.986Z,84.60
2018-02-17T07:15:06.375Z,84.60
2018-02-17T07:16:08.533Z,84.60
2018-02-17T07:17:05.815Z,84.60
2018-02-17T07:18:06.729Z,84.70
2018-02-17T07:19:06.267Z,84.70
2018-02-17T07:20:06.502Z,84.70
2018-02-17T07:21:06.099Z,84.70
2018-02-17T07:22:05.826Z,84.70
2018-02-17T07:23:06.402Z,84.70
2018-02-17T07:24:06.090Z,84.80
2018-02-17T07:25:11.360Z,84.80
2018-02-17T07:26:10.653Z,84.80
2018-02-17T07:27:06.265Z,84.70
2018-02-17T07:28:05.789Z,84.80
2018-02-17T07:29:06.513Z,84.80
2018-02-17T07:30:11.412Z,84.80
2018-02-17T07:31:06.168Z,84.80
2018-02-17T07:32:10.816Z,84.80
2018-02-17T07:33:13.609Z,84.80
2018-02-17T07:34:06.146Z,84.80
2018-02-17T07:35:05.751Z,84.80
2018-02-17T07:36:08.870Z,84.80
2018-02-17T07:37:13.599Z,84.80
2018-02-17T07:38:05.998Z,84.80
2018-02-17T07:39:05.465Z,84.90
2018-02-17T07:40:05.992Z,84.90
2018-02-17T07:41:05.446Z,85.00
2018-02-17T07:42:11.222Z,85.00
2018-02-17T07:43:05.650Z,85.00
2018-02-17T07:44:05.589Z,85.00
2018-02-17T07:45:06.710Z,85.00
2018-02-17T07:46:05.669Z,85.00
2018-02-17T07:47:05.805Z,85.00
2018-02-17T07:48:10.673Z,85.00
2018-02-17T07:49:09.445Z,85.00
2018-02-17T07:50:13.995Z,85.00
2018-02-17T07:51:06.655Z,85.00
2018-02-17T07:52:09.478Z,85.10
2018-02-17T07:53:06.044Z,85.10
2018-02-17T07:54:05.672Z,85.10
2018-02-17T07:55:05.870Z,85.10
2018-02-17T07:56:05.780Z,85.10
2018-02-17T07:57:08.772Z,85.10
2018-02-17T07:58:06.295Z,85.10
2018-02-17T07:59:05.565Z,85.10
2018-02-17T08:00:13.633Z,85.20
2018-02-17T08:01:06.167Z,85.20
2018-02-17T08:02:06.116Z,85.10
2018-02-17T08:03:10.818Z,85.20
2018-02-17T08:04:06.391Z,85.20
2018-02-17T08:05:11.527Z,85.30
2018-02-17T08:06:09.228Z,85.30
2018-02-17T08:07:06.018Z,85.30
2018-02-17T08:08:10.103Z,85.30
2018-02-17T08:09:06.209Z,85.20
2018-02-17T08:10:06.015Z,85.20
2018-02-17T08:11:06.303Z,85.30
2018-02-17T08:12:05.607Z,85.30
2018-02-17T08:13:07.055Z,85.30
2018-02-17T08:14:20.436Z,85.30
2018-02-17T08:15:05.841Z,85.30
2018-02-17T08:16:06.530Z,85.40
2018-02-17T08:17:06.607Z,85.30
2018-02-17T08:18:10.036Z,85.30
2018-02-17T08:19:10.518Z,85.30
2018-02-17T08:20:06.094Z,85.30
2018-02-17T08:21:05.660Z,85.30
2018-02-17T08:22:05.993Z,85.30
2018-02-17T08:23:10.876Z,85.40
2018-02-17T08:24:08.868Z,85.30
2018-02-17T08:25:08.978Z,85.40
2018-02-17T08:26:06.727Z,85.40
2018-02-17T08:27:06.304Z,85.40
2018-02-17T08:28:05.729Z,85.50
2018-02-17T08:29:09.146Z,85.50
2018-02-17T08:30:06.007Z,85.50
2018-02-17T08:31:05.579Z,85.50
2018-02-17T08:32:06.112Z,85.50
2018-02-17T08:33:06.022Z,85.50
2018-02-17T08:34:10.960Z,85.50
2018-02-17T08:35:06.656Z,85.50
2018-02-17T08:36:11.004Z,85.60
2018-02-17T08:37:08.887Z,85.60
2018-02-17T08:38:09.993Z,85.60
2018-02-17T08:39:08.617Z,85.60
2018-02-17T08:40:06.146Z,85.60
2018-02-17T08:41:05.686Z,85.70
2018-02-17T08:42:09.383Z,85.60
2018-02-17T08:43:05.990Z,85.60
2018-02-17T08:44:05.987Z,85.70
2018-02-17T08:45:05.729Z,85.60
2018-02-17T08:46:05.444Z,85.70
2018-02-17T08:47:08.304Z,85.70
2018-02-17T08:48:05.680Z,85.70
2018-02-17T08:49:06.455Z,85.70
2018-02-17T08:50:13.486Z,85.70
2018-02-17T08:51:06.489Z,85.70
2018-02-17T08:52:06.044Z,85.70
2018-02-17T08:53:07.963Z,85.80
2018-02-17T08:54:06.428Z,85.80
2018-02-17T08:55:06.103Z,85.80
2018-02-17T08:56:16.474Z,85.90
2018-02-17T08:57:10.471Z,85.90
2018-02-17T08:58:08.869Z,85.90
2018-02-17T08:59:09.365Z,86.00
2018-02-17T09:00:08.475Z,86.00
2018-02-17T09:01:06.330Z,86.00
2018-02-17T09:02:06.474Z,85.90
2018-02-17T09:03:05.915Z,85.90
2018-02-17T09:04:09.561Z,85.90
2018-02-17T09:05:13.546Z,85.90
2018-02-17T09:06:06.088Z,85.90
2018-02-17T09:07:08.507Z,86.10
2018-02-17T09:08:11.073Z,85.90
2018-02-17T09:09:05.744Z,86.00
2018-02-17T09:10:05.797Z,86.00
2018-02-17T09:11:11.447Z,86.00
2018-02-17T09:12:10.999Z,86.00
2018-02-17T09:13:06.745Z,86.00
2018-02-17T09:14:10.038Z,85.90
2018-02-17T09:15:05.457Z,85.90
2018-02-17T09:16:05.972Z,85.90
2018-02-17T09:17:11.457Z,86.00
2018-02-17T09:18:09.828Z,85.90
2018-02-17T09:19:06.365Z,86.00
2018-02-17T09:20:08.453Z,86.00
2018-02-17T09:21:05.985Z,86.00
2018-02-17T09:22:10.754Z,85.90
2018-02-17T09:23:05.881Z,85.90
2018-02-17T09:24:06.375Z,85.90
2018-02-17T09:25:10.956Z,85.90
2018-02-17T09:26:07.717Z,86.00
2018-02-17T09:27:09.243Z,86.00
2018-02-17T09:28:06.389Z,86.00
2018-02-17T09:29:09.315Z,86.00
2018-02-17T09:30:05.806Z,85.90
2018-02-17T09:31:11.707Z,85.90
2018-02-17T09:32:15.859Z,86.00
2018-02-17T09:33:06.841Z,86.00
2018-02-17T09:34:11.787Z,85.90
2018-02-17T09:35:08.476Z,85.90
2018-02-17T09:36:08.487Z,85.90
2018-02-17T09:37:05.940Z,85.90
2018-02-17T09:38:05.848Z,85.90
2018-02-17T09:39:05.791Z,85.80
2018-02-17T09:40:08.568Z,85.90
2018-02-17T09:41:05.853Z,85.80
2018-02-17T09:42:05.854Z,85.80
2018-02-17T09:43:05.751Z,85.80
2018-02-17T09:44:10.612Z,85.70
2018-02-17T09:45:06.159Z,85.70
2018-02-17T09:46:05.893Z,79.20
2018-02-17T09:47:05.661Z,85.60
2018-02-17T09:48:06.288Z,85.60
2018-02-17T09:49:11.291Z,85.70
2018-02-17T09:50:05.828Z,85.70
2018-02-17T09:51:06.701Z,85.70
2018-02-17T09:52:05.721Z,85.70
2018-02-17T09:53:08.561Z,85.60
2018-02-17T09:54:06.066Z,85.70
2018-02-17T09:55:06.373Z,85.60
2018-02-17T09:56:06.252Z,85.70
2018-02-17T09:57:05.773Z,85.60
2018-02-17T09:58:11.520Z,85.70
2018-02-17T09:59:05.829Z,85.70
2018-02-17T10:00:05.646Z,85.70
2018-02-17T10:01:07.282Z,85.70
2018-02-17T10:02:10.273Z,85.70
2018-02-17T10:03:06.117Z,85.80
2018-02-17T10:04:05.708Z,85.80
2018-02-17T10:05:05.782Z,85.80
2018-02-17T10:06:05.552Z,85.80
2018-02-17T10:07:08.759Z,85.70
2018-02-17T10:08:06.178Z,85.80
2018-02-17T10:09:05.751Z,85.70
2018-02-17T10:10:08.838Z,85.80
2018-02-17T10:11:11.312Z,85.70
2018-02-17T10:12:05.627Z,85.70
2018-02-17T10:13:05.780Z,85.80
2018-02-17T10:14:06.353Z,85.80
2018-02-17T10:15:11.109Z,85.80
2018-02-17T10:16:06.502Z,85.80
2018-02-17T10:17:08.332Z,85.80
2018-02-17T10:18:06.731Z,85.80
2018-02-17T10:19:06.569Z,85.80
2018-02-17T10:20:16.149Z,85.90
2018-02-17T10:21:05.543Z,85.90
2018-02-17T10:22:06.546Z,85.80
2018-02-17T10:23:06.477Z,85.80
2018-02-17T10:24:10.663Z,85.80
2018-02-17T10:25:05.600Z,85.90
2018-02-17T10:26:06.023Z,86.00
2018-02-17T10:27:05.763Z,85.80
2018-02-17T10:28:06.421Z,85.80
2018-02-17T10:29:08.697Z,85.70
2018-02-17T10:30:06.109Z,85.60
2018-02-17T10:31:05.516Z,85.60
2018-02-17T10:32:06.149Z,85.60
2018-02-17T10:33:05.776Z,85.70
2018-02-17T10:34:06.013Z,85.70
2018-02-17T10:35:08.473Z,85.60
2018-02-17T10:36:10.931Z,85.60
2018-02-17T10:37:05.788Z,85.50
2018-02-17T10:38:11.366Z,85.40
2018-02-17T10:39:05.439Z,85.50
2018-02-17T10:40:05.876Z,85.40
2018-02-17T10:41:09.428Z,85.50
2018-02-17T10:42:05.763Z,85.50
2018-02-17T10:43:11.596Z,85.50
2018-02-17T10:44:06.053Z,85.40
2018-02-17T10:45:08.913Z,84.90
2018-02-17T10:46:06.271Z,84.90
2018-02-17T10:47:10.661Z,84.60
2018-02-17T10:48:06.256Z,84.60
2018-02-17T10:49:10.987Z,84.50
2018-02-17T10:50:10.423Z,84.50
2018-02-17T10:51:05.848Z,84.40
2018-02-17T10:52:06.307Z,84.30
2018-02-17T10:53:05.931Z,84.00
2018-02-17T10:54:11.345Z,83.60
2018-02-17T10:55:05.755Z,83.60
2018-02-17T10:56:06.215Z,83.60
2018-02-17T10:57:05.708Z,83.60
2018-02-17T10:58:06.418Z,83.70
2018-02-17T10:59:08.439Z,83.30
2018-02-17T11:00:05.803Z,83.30
2018-02-17T11:01:06.476Z,83.20
2018-02-17T11:02:08.683Z,82.80
2018-02-17T11:03:05.953Z,82.80
2018-02-17T11:04:06.272Z,82.70
2018-02-17T11:05:05.856Z,82.60
2018-02-17T11:06:06.196Z,82.40
2018-02-17T11:07:05.910Z,82.00
2018-02-17T11:08:06.344Z,81.80
2018-02-17T11:09:05.724Z,81.70
2018-02-17T11:10:06.317Z,82.00
2018-02-17T11:11:05.530Z,81.90
2018-02-17T11:12:06.600Z,81.60
2018-02-17T11:13:09.598Z,80.80
2018-02-17T11:14:11.011Z,80.80
2018-02-17T11:15:06.453Z,80.80
2018-02-17T11:16:06.206Z,80.50
2018-02-17T11:17:08.465Z,80.00
2018-02-17T11:18:05.783Z,80.00
2018-02-17T11:19:10.977Z,79.80
2018-02-17T11:20:09.173Z,79.60
2018-02-17T11:21:10.617Z,79.30
2018-02-17T11:22:05.983Z,79.30
2018-02-17T11:23:08.755Z,78.80
2018-02-17T11:24:08.732Z,78.60
2018-02-17T11:25:11.212Z,78.60
2018-02-17T11:26:05.570Z,78.70
2018-02-17T11:27:08.475Z,78.90
2018-02-17T11:28:05.831Z,78.90
2018-02-17T11:29:06.317Z,79.10
2018-02-17T11:30:05.738Z,79.10
2018-02-17T11:31:06.165Z,79.10
2018-02-17T11:32:05.916Z,79.10
2018-02-17T11:33:06.232Z,78.90
2018-02-17T11:34:08.278Z,78.70
2018-02-17T11:35:05.567Z,78.60
2018-02-17T11:36:06.122Z,78.60
2018-02-17T11:37:06.100Z,78.80
2018-02-17T11:38:05.895Z,78.90
2018-02-17T11:39:05.827Z,78.90
2018-02-17T11:40:06.599Z,78.90
2018-02-17T11:41:06.114Z,78.90
2018-02-17T11:42:05.546Z,78.80
2018-02-17T11:43:05.976Z,78.80
2018-02-17T11:44:06.482Z,78.80
2018-02-17T11:45:11.335Z,78.80
2018-02-17T11:46:06.446Z,78.70
2018-02-17T11:47:09.994Z,78.80
2018-02-17T11:48:06.299Z,78.80
2018-02-17T11:49:05.783Z,78.50
2018-02-17T11:50:05.647Z,78.40
2018-02-17T11:51:09.753Z,78.70
2018-02-17T11:52:06.177Z,78.50
2018-02-17T11:53:05.923Z,78.30
2018-02-17T11:54:05.443Z,78.40
2018-02-17T11:55:06.477Z,78.40
2018-02-17T11:56:05.867Z,78.40
2018-02-17T11:57:08.711Z,78.40
2018-02-17T11:58:06.004Z,78.40
2018-02-17T11:59:05.504Z,78.40
2018-02-17T12:00:09.040Z,78.50
2018-02-17T12:01:05.384Z,78.50
2018-02-17T12:02:11.363Z,78.40
2018-02-17T12:03:05.755Z,78.40
2018-02-17T12:04:05.913Z,78.20
2018-02-17T12:05:05.475Z,78.00
2018-02-17T12:06:05.912Z,77.60
2018-02-17T12:07:06.484Z,77.40
2018-02-17T12:08:10.926Z,77.00
2018-02-17T12:09:08.845Z,76.70
2018-02-17T12:10:06.355Z,76.70
2018-02-17T12:11:06.006Z,76.60
2018-02-17T12:12:05.382Z,76.60
2018-02-17T12:13:05.435Z,76.70
2018-02-17T12:14:11.235Z,76.40
2018-02-17T12:15:10.606Z,76.30
2018-02-17T12:16:08.965Z,76.50
2018-02-17T12:17:09.779Z,76.60
2018-02-17T12:18:06.205Z,76.60
2018-02-17T12:19:05.801Z,76.80
2018-02-17T12:20:06.369Z,76.90
2018-02-17T12:21:08.287Z,77.00
2018-02-17T12:22:05.597Z,77.00
2018-02-17T12:23:06.170Z,77.10
2018-02-17T12:24:06.505Z,77.10
2018-02-17T12:25:05.727Z,77.30
2018-02-17T12:26:05.996Z,77.30
2018-02-17T12:27:05.591Z,77.20
2018-02-17T12:28:06.113Z,77.20
2018-02-17T12:29:05.921Z,77.20
2018-02-17T12:30:08.653Z,77.00
2018-02-17T12:31:05.546Z,77.00
2018-02-17T12:32:09.415Z,77.20
2018-02-17T12:33:05.756Z,77.10
2018-02-17T12:34:06.146Z,77.20
2018-02-17T12:35:05.738Z,77.20
2018-02-17T12:36:08.149Z,77.30
2018-02-17T12:37:08.705Z,77.40
2018-02-17T12:38:11.053Z,77.40
2018-02-17T12:39:06.249Z,77.40
2018-02-17T12:40:06.386Z,77.40
2018-02-17T12:41:11.367Z,77.40
2018-02-17T12:42:10.930Z,77.10
2018-02-17T12:43:10.627Z,77.10
2018-02-17T12:44:10.729Z,77.10
2018-02-17T12:45:05.834Z,77.20
2018-02-17T12:46:05.552Z,77.20
2018-02-17T12:47:10.341Z,77.40
2018-02-17T12:48:05.918Z,77.40
2018-02-17T12:49:05.445Z,77.40
2018-02-17T12:50:11.005Z,77.10
2018-02-17T12:51:06.217Z,77.00
2018-02-17T12:52:05.669Z,76.70